LATILDSP

Guest
Details From LATI - Tirana Rinas
To LDSP - SPLIT
Flight Number -
Tags generated
Created
Modified
Stats Distance 199 nm / 369 km
Max Altitude 22,500 ft / 6,858 m
Waypoints 3
Social Downloads 1
Likes 0
Share VATSIM

Download

Looking for another format? Having issues loading an existing format? Contact us
Advertisement - Login to hide

Notes

Basic altitude profile: - Ascent Rate: 2500ft/min - Ascent Speed: 250kts - Cruise Altitude: 35000ft - Cruise Speed: 420kts - Descent Rate: 1500ft/min - Descent Speed: 250kts Options: - Use NATs: yes - Use PACOTS: yes - Use low airways: no - Use high airways: yes

Route

LATI DBK LDSP

ID Type Via Altitude Latitude Longitude Leg Dist Tot Dist Heading (true) Name
O LATI APT - 0 ft / 0 m 41.41473˚ 19.72057˚ - 0 nm - Tirana Rinas
DBK VOR - 22,500 ft / 6,858 m 42.55384˚ 18.27743˚ 93 nm 93 nm 317° / 316° DUBROVNIK VOR-DME
O LDSP APT - 0 ft / 0 m 43.53903˚ 16.29811˚ 105 nm 199 nm 305° / 304° SPLIT

Altitude Profile

Advertisement - Login to hide

Weather


0- 5 10 15 20 25 30 35+ Temperature / ° C

Clouds and Precipitation
Forecast for 2018-05-25 12:00 UTC. Updated 4 hours ago

Ground ~20,000 ft ~40,000 ft Winds

LATI

Details ICAO LATI (TIA)
Name Tirana Rinas
Region Albania
Timezone Europe/Tirane (UTC+2.0)
Stats Elevation 126 ft / 38 m (AMSL)
Location 41.414732° 19.720569°
Runways 1
Magnetic Variation 4.278° E

METAR

LATI 251450Z 35010KT 9999 FEW030TCU 26/19 Q1012 NOSIG

Decode

TAF

TAF LATI 251100Z 2512/2612 34010KT 9999 FEW035TCU SCT100 TX29/2612Z TN16/2604Z BECMG 2517/2519 VRB03KT CAVOK

Decode

Departure Runways

ID Width Length Bearing (true) Bearing (mag) Surface Threshold Offset Overrun Length
18 148 ft / 45 m 8,984 ft / 2,738 m 174.31° 170.03° Asphalt 500 ft / 152 m 0 ft / 0 m
36 148 ft / 45 m 8,984 ft / 2,738 m 354.31° 350.03° Asphalt 500 ft / 152 m 0 ft / 0 m

LDSP

Details ICAO LDSP (SPU)
Name SPLIT
Region Croatia
Timezone Europe/Zagreb (UTC+2.0)
Stats Elevation 79 ft / 24 m (AMSL)
Location 43.539026° 16.298112°
Runways 1
Magnetic Variation 3.885° E

METAR

LDSP 251500Z 21004KT 170V230 9999 FEW040 26/18 Q1013 TEMPO 23008KT

Decode

TAF

TAF LDSP 251125Z 2512/2612 23009KT 9999 FEW040 TX28/2513Z TN19/2603Z PROB30 TEMPO 2512/2515 TS FEW035CB BECMG 2517/2519 31005KT BECMG 2610/2612 23010KT

Decode

Destination Runways

ID Width Length Bearing (true) Bearing (mag) Surface Threshold Offset Overrun Length
05 148 ft / 45 m 8,357 ft / 2,547 m 52.48° 48.60° Asphalt 0 ft / 0 m 76 ft / 23 m
23 148 ft / 45 m 8,357 ft / 2,547 m 232.50° 228.62° Asphalt 525 ft / 160 m 820 ft / 250 m

Approach Navaids

Runway Type Ident Frequency Range Bearing (true) Bearing (mag) Slope Elevation
05 Localiser IST 110.50 MHz 25 nm / 46 km 52.57° 48.69° - 69 ft / 21 m (AMSL)
05 Glidescope IST 110.50 MHz 25 nm / 46 km 52.57° 48.69° 3.00° 52 ft / 16 m (AMSL)

Popular Alternatives